Decoded Metar for OIMM (MASHHAD (AFB/CIV in IRAN) (IATA:N/A) | Meteo·Mobile Aviation Weather
aviador You're here:

OIMM Decoded Metar

MASHHAD (AFB/CIV in IRAN
Report Time2019-03-19 22:30:00
UTC Time2019-03-19 22:47:13
Flight Rules vfr VFR
Wind250° at 10 kt
W.Decomp.*RWY 31: 4.5 kt HW 8.9 kt LCW
W.Rank250° ranks 36
Current wind is above 250° avg. (5.3)
Visibility9999 m
Phenomena:N/A
Clouds:Scattered 030 Hf
Scattered 070 Hf
Expected CloudBase > 2,400 ft AGL from Temp-Dew spread
CeilingNone
Temp06°C (ISA -3)
Dew Point00°C (66% RH)
AAT0.4°C
QNH1016 hPa
Density Alt2,894 ft
Elevation3,215 ft
Report Wrong Elevation
Raw Report
METAR OIMM 192230Z 25010KT 9999 SCT030 SCT070 06/M00 Q1016 A3002=

Extra information for OIMM:More info

Metar Taf Metar & Taf Last 4 Metars F.Rules Stats Wind Profile Meteogram Temp Stats Airport Information Weather charts Add Link Nearby VenuesMetar ALERT Operation Metar Decoded Social comments